sensor_id;sensor_type;location;lat;lon;timestamp;temperature;humidity
11132;DHT22;5620;53.570;9.718;2023-09-18T00:00:24;20.10;1.00
11132;DHT22;5620;53.570;9.718;2023-09-18T00:02:49;20.10;1.00
11132;DHT22;5620;53.570;9.718;2023-09-18T00:05:15;20.10;1.00
11132;DHT22;5620;53.570;9.718;2023-09-18T00:07:44;20.10;1.00
11132;DHT22;5620;53.570;9.718;2023-09-18T00:10:11;20.00;1.00
11132;DHT22;5620;53.570;9.718;2023-09-18T00:12:38;20.00;1.00
11132;DHT22;5620;53.570;9.718;2023-09-18T00:15:04;20.00;1.00
11132;DHT22;5620;53.570;9.718;2023-09-18T00:17:30;20.00;1.00
11132;DHT22;5620;53.570;9.718;2023-09-18T00:19:56;19.90;1.00
11132;DHT22;5620;53.570;9.718;2023-09-18T00:22:21;19.90;31.30
11132;DHT22;5620;53.570;9.718;2023-09-18T00:24:47;19.90;82.00
11132;DHT22;5620;53.570;9.718;2023-09-18T00:27:13;19.90;99.90
11132;DHT22;5620;53.570;9.718;2023-09-18T00:29:39;19.90;99.90
11132;DHT22;5620;53.570;9.718;2023-09-18T00:32:05;19.90;99.90
11132;DHT22;5620;53.570;9.718;2023-09-18T00:34:31;19.80;99.90
11132;DHT22;5620;53.570;9.718;2023-09-18T00:36:56;19.80;99.90
11132;DHT22;5620;53.570;9.718;2023-09-18T00:39:22;19.80;99.90
11132;DHT22;5620;53.570;9.718;2023-09-18T00:41:47;19.80;99.90
11132;DHT22;5620;53.570;9.718;2023-09-18T00:44:13;19.80;1.00
11132;DHT22;5620;53.570;9.718;2023-09-18T00:46:38;19.70;1.00
11132;DHT22;5620;53.570;9.718;2023-09-18T00:49:04;19.70;1.00
11132;DHT22;5620;53.570;9.718;2023-09-18T00:51:30;19.70;1.00
11132;DHT22;5620;53.570;9.718;2023-09-18T00:53:56;19.80;1.00
11132;DHT22;5620;53.570;9.718;2023-09-18T00:56:21;19.70;1.00
11132;DHT22;5620;53.570;9.718;2023-09-18T00:58:47;19.70;1.00
11132;DHT22;5620;53.570;9.718;2023-09-18T01:01:15;19.70;1.00
11132;DHT22;5620;53.570;9.718;2023-09-18T01:03:42;19.70;1.00
11132;DHT22;5620;53.570;9.718;2023-09-18T01:06:08;19.70;1.00
11132;DHT22;5620;53.570;9.718;2023-09-18T01:08:33;19.70;1.00
11132;DHT22;5620;53.570;9.718;2023-09-18T01:11:30;19.70;1.00
11132;DHT22;5620;53.570;9.718;2023-09-18T01:14:07;19.70;1.00
11132;DHT22;5620;53.570;9.718;2023-09-18T01:16:41;19.60;1.00
11132;DHT22;5620;53.570;9.718;2023-09-18T01:19:10;19.60;1.00
11132;DHT22;5620;53.570;9.718;2023-09-18T01:21:35;19.60;1.00
11132;DHT22;5620;53.570;9.718;2023-09-18T01:24:00;19.60;1.00
11132;DHT22;5620;53.570;9.718;2023-09-18T01:26:26;19.60;1.00
11132;DHT22;5620;53.570;9.718;2023-09-18T01:28:53;19.60;1.00
11132;DHT22;5620;53.570;9.718;2023-09-18T01:31:18;19.70;1.00
11132;DHT22;5620;53.570;9.718;2023-09-18T01:33:45;19.60;1.00
11132;DHT22;5620;53.570;9.718;2023-09-18T01:36:13;19.60;1.00
11132;DHT22;5620;53.570;9.718;2023-09-18T01:38:40;19.60;1.00
11132;DHT22;5620;53.570;9.718;2023-09-18T01:41:06;19.60;1.00
11132;DHT22;5620;53.570;9.718;2023-09-18T01:43:32;19.60;1.00
11132;DHT22;5620;53.570;9.718;2023-09-18T01:45:58;19.60;1.00
11132;DHT22;5620;53.570;9.718;2023-09-18T01:48:23;19.60;1.00
11132;DHT22;5620;53.570;9.718;2023-09-18T01:50:49;19.60;1.00
11132;DHT22;5620;53.570;9.718;2023-09-18T01:53:14;19.50;1.00
11132;DHT22;5620;53.570;9.718;2023-09-18T01:55:40;19.50;1.00
11132;DHT22;5620;53.570;9.718;2023-09-18T01:58:05;19.50;1.00
11132;DHT22;5620;53.570;9.718;2023-09-18T02:00:31;19.50;1.00
11132;DHT22;5620;53.570;9.718;2023-09-18T02:02:57;19.50;28.80
11132;DHT22;5620;53.570;9.718;2023-09-18T02:05:23;19.40;58.80
11132;DHT22;5620;53.570;9.718;2023-09-18T02:07:48;19.50;75.40
11132;DHT22;5620;53.570;9.718;2023-09-18T02:10:14;19.50;90.00
11132;DHT22;5620;53.570;9.718;2023-09-18T02:12:39;19.50;95.90
11132;DHT22;5620;53.570;9.718;2023-09-18T02:15:06;19.40;99.90
11132;DHT22;5620;53.570;9.718;2023-09-18T02:17:32;19.40;99.90
11132;DHT22;5620;53.570;9.718;2023-09-18T02:19:58;19.40;99.90
11132;DHT22;5620;53.570;9.718;2023-09-18T02:22:23;19.40;99.90
11132;DHT22;5620;53.570;9.718;2023-09-18T02:24:49;19.40;99.90
11132;DHT22;5620;53.570;9.718;2023-09-18T02:27:14;19.40;99.90
11132;DHT22;5620;53.570;9.718;2023-09-18T02:29:40;19.30;99.90
11132;DHT22;5620;53.570;9.718;2023-09-18T02:32:05;19.30;99.90
11132;DHT22;5620;53.570;9.718;2023-09-18T02:34:31;19.30;99.90
11132;DHT22;5620;53.570;9.718;2023-09-18T02:36:56;19.30;99.90
11132;DHT22;5620;53.570;9.718;2023-09-18T02:39:22;19.30;99.90
11132;DHT22;5620;53.570;9.718;2023-09-18T02:41:47;19.30;99.90
11132;DHT22;5620;53.570;9.718;2023-09-18T02:44:13;19.30;99.90
11132;DHT22;5620;53.570;9.718;2023-09-18T02:46:41;19.30;99.90
11132;DHT22;5620;53.570;9.718;2023-09-18T02:49:07;19.30;99.90
11132;DHT22;5620;53.570;9.718;2023-09-18T02:51:32;19.20;99.90
11132;DHT22;5620;53.570;9.718;2023-09-18T02:53:58;19.20;99.90
11132;DHT22;5620;53.570;9.718;2023-09-18T02:56:23;19.20;1.00
11132;DHT22;5620;53.570;9.718;2023-09-18T02:58:49;19.20;1.00
11132;DHT22;5620;53.570;9.718;2023-09-18T03:01:14;19.20;99.90
11132;DHT22;5620;53.570;9.718;2023-09-18T03:03:40;19.20;99.90
11132;DHT22;5620;53.570;9.718;2023-09-18T03:06:05;19.20;99.90
11132;DHT22;5620;53.570;9.718;2023-09-18T03:08:31;19.20;99.90
11132;DHT22;5620;53.570;9.718;2023-09-18T03:10:57;19.20;99.90
11132;DHT22;5620;53.570;9.718;2023-09-18T03:13:22;19.20;99.90
11132;DHT22;5620;53.570;9.718;2023-09-18T03:15:48;19.20;99.90
11132;DHT22;5620;53.570;9.718;2023-09-18T03:18:14;19.10;99.90
11132;DHT22;5620;53.570;9.718;2023-09-18T03:20:39;19.10;99.90
11132;DHT22;5620;53.570;9.718;2023-09-18T03:23:05;19.10;99.90
11132;DHT22;5620;53.570;9.718;2023-09-18T03:25:30;19.00;99.90
11132;DHT22;5620;53.570;9.718;2023-09-18T03:27:57;19.00;99.90
11132;DHT22;5620;53.570;9.718;2023-09-18T03:30:24;19.00;99.90
11132;DHT22;5620;53.570;9.718;2023-09-18T03:32:52;19.00;99.90
11132;DHT22;5620;53.570;9.718;2023-09-18T03:35:19;19.00;99.90
11132;DHT22;5620;53.570;9.718;2023-09-18T03:37:45;19.00;99.90
11132;DHT22;5620;53.570;9.718;2023-09-18T03:40:11;19.00;99.90
11132;DHT22;5620;53.570;9.718;2023-09-18T03:42:37;19.00;99.90
11132;DHT22;5620;53.570;9.718;2023-09-18T03:45:03;19.00;99.90
11132;DHT22;5620;53.570;9.718;2023-09-18T03:47:28;19.00;99.90
11132;DHT22;5620;53.570;9.718;2023-09-18T03:49:54;19.00;99.90
11132;DHT22;5620;53.570;9.718;2023-09-18T03:52:19;19.00;99.90
11132;DHT22;5620;53.570;9.718;2023-09-18T03:54:45;19.00;99.90
11132;DHT22;5620;53.570;9.718;2023-09-18T03:57:10;19.10;99.90
11132;DHT22;5620;53.570;9.718;2023-09-18T03:59:38;19.10;99.90
11132;DHT22;5620;53.570;9.718;2023-09-18T04:02:03;19.10;99.90
11132;DHT22;5620;53.570;9.718;2023-09-18T04:04:29;19.10;99.90
11132;DHT22;5620;53.570;9.718;2023-09-18T04:06:54;19.10;99.90
11132;DHT22;5620;53.570;9.718;2023-09-18T04:09:21;19.10;99.90
11132;DHT22;5620;53.570;9.718;2023-09-18T04:11:47;19.10;99.90
11132;DHT22;5620;53.570;9.718;2023-09-18T04:14:12;19.10;99.90
11132;DHT22;5620;53.570;9.718;2023-09-18T04:16:38;19.10;99.90
11132;DHT22;5620;53.570;9.718;2023-09-18T04:19:03;19.10;99.90
11132;DHT22;5620;53.570;9.718;2023-09-18T04:21:29;19.10;99.90
11132;DHT22;5620;53.570;9.718;2023-09-18T04:23:55;19.10;99.90
11132;DHT22;5620;53.570;9.718;2023-09-18T04:26:21;19.10;99.90
11132;DHT22;5620;53.570;9.718;2023-09-18T04:28:47;19.10;99.90
11132;DHT22;5620;53.570;9.718;2023-09-18T04:31:12;19.10;99.90
11132;DHT22;5620;53.570;9.718;2023-09-18T04:33:38;19.10;99.90
11132;DHT22;5620;53.570;9.718;2023-09-18T04:36:04;19.10;99.90
11132;DHT22;5620;53.570;9.718;2023-09-18T04:38:29;19.10;99.90
11132;DHT22;5620;53.570;9.718;2023-09-18T04:41:01;19.10;99.90
11132;DHT22;5620;53.570;9.718;2023-09-18T04:43:26;19.10;99.90
11132;DHT22;5620;53.570;9.718;2023-09-18T04:45:52;19.10;99.90
11132;DHT22;5620;53.570;9.718;2023-09-18T04:48:17;19.10;99.90
11132;DHT22;5620;53.570;9.718;2023-09-18T04:50:44;19.10;99.90
11132;DHT22;5620;53.570;9.718;2023-09-18T04:53:10;19.10;99.90
11132;DHT22;5620;53.570;9.718;2023-09-18T04:55:37;19.10;99.90
11132;DHT22;5620;53.570;9.718;2023-09-18T04:58:03;19.10;99.90
11132;DHT22;5620;53.570;9.718;2023-09-18T05:00:28;19.10;99.90
11132;DHT22;5620;53.570;9.718;2023-09-18T05:02:54;19.10;99.90
11132;DHT22;5620;53.570;9.718;2023-09-18T05:05:20;19.10;99.90
11132;DHT22;5620;53.570;9.718;2023-09-18T05:07:45;19.10;99.90
11132;DHT22;5620;53.570;9.718;2023-09-18T05:10:11;19.10;99.90
11132;DHT22;5620;53.570;9.718;2023-09-18T05:12:39;19.10;99.90
11132;DHT22;5620;53.570;9.718;2023-09-18T05:15:05;19.20;99.90
11132;DHT22;5620;53.570;9.718;2023-09-18T05:20:06;19.30;99.90
11132;DHT22;5620;53.570;9.718;2023-09-18T05:22:32;19.40;95.60
11132;DHT22;5620;53.570;9.718;2023-09-18T05:24:59;19.50;46.00
11132;DHT22;5620;53.570;9.718;2023-09-18T05:27:25;19.50;1.00
11132;DHT22;5620;53.570;9.718;2023-09-18T05:29:50;19.50;1.00
11132;DHT22;5620;53.570;9.718;2023-09-18T05:32:16;19.60;1.00
11132;DHT22;5620;53.570;9.718;2023-09-18T05:34:41;19.60;1.00
11132;DHT22;5620;53.570;9.718;2023-09-18T05:37:07;19.70;1.00
11132;DHT22;5620;53.570;9.718;2023-09-18T05:39:32;19.70;1.00
11132;DHT22;5620;53.570;9.718;2023-09-18T05:41:58;19.70;99.90
11132;DHT22;5620;53.570;9.718;2023-09-18T05:44:23;19.60;99.90
11132;DHT22;5620;53.570;9.718;2023-09-18T05:46:49;19.70;99.90
11132;DHT22;5620;53.570;9.718;2023-09-18T05:49:14;19.70;99.90
11132;DHT22;5620;53.570;9.718;2023-09-18T05:51:40;19.70;99.90
11132;DHT22;5620;53.570;9.718;2023-09-18T05:54:07;19.70;99.90
11132;DHT22;5620;53.570;9.718;2023-09-18T05:56:33;19.80;99.90
11132;DHT22;5620;53.570;9.718;2023-09-18T05:59:00;19.80;99.90
11132;DHT22;5620;53.570;9.718;2023-09-18T06:01:26;19.90;99.90
11132;DHT22;5620;53.570;9.718;2023-09-18T06:03:51;20.00;99.90
11132;DHT22;5620;53.570;9.718;2023-09-18T06:06:17;20.20;99.90
11132;DHT22;5620;53.570;9.718;2023-09-18T06:08:42;20.40;83.10
11132;DHT22;5620;53.570;9.718;2023-09-18T06:11:08;20.60;4.60
11132;DHT22;5620;53.570;9.718;2023-09-18T06:13:33;20.90;1.00
11132;DHT22;5620;53.570;9.718;2023-09-18T06:15:59;21.10;1.00
11132;DHT22;5620;53.570;9.718;2023-09-18T06:18:24;21.50;1.00
11132;DHT22;5620;53.570;9.718;2023-09-18T06:20:50;21.70;99.90
11132;DHT22;5620;53.570;9.718;2023-09-18T06:23:15;21.80;99.90
11132;DHT22;5620;53.570;9.718;2023-09-18T06:25:41;21.90;99.90
11132;DHT22;5620;53.570;9.718;2023-09-18T06:28:06;22.00;69.90
11132;DHT22;5620;53.570;9.718;2023-09-18T06:30:33;22.10;5.70
11132;DHT22;5620;53.570;9.718;2023-09-18T06:32:59;22.10;1.00
11132;DHT22;5620;53.570;9.718;2023-09-18T06:35:25;22.10;1.00
11132;DHT22;5620;53.570;9.718;2023-09-18T06:37:50;22.00;1.00
11132;DHT22;5620;53.570;9.718;2023-09-18T06:40:17;22.00;1.00
11132;DHT22;5620;53.570;9.718;2023-09-18T06:42:42;21.90;1.00
11132;DHT22;5620;53.570;9.718;2023-09-18T06:45:08;21.90;1.00
11132;DHT22;5620;53.570;9.718;2023-09-18T06:47:34;22.00;1.00
11132;DHT22;5620;53.570;9.718;2023-09-18T06:50:01;22.00;1.00
11132;DHT22;5620;53.570;9.718;2023-09-18T06:52:28;22.00;1.00
11132;DHT22;5620;53.570;9.718;2023-09-18T06:54:53;22.10;1.00
11132;DHT22;5620;53.570;9.718;2023-09-18T06:57:19;22.20;1.00
11132;DHT22;5620;53.570;9.718;2023-09-18T06:59:45;22.30;1.00
11132;DHT22;5620;53.570;9.718;2023-09-18T07:02:10;22.30;1.00
11132;DHT22;5620;53.570;9.718;2023-09-18T07:04:36;22.40;99.90
11132;DHT22;5620;53.570;9.718;2023-09-18T07:07:01;22.50;99.90
11132;DHT22;5620;53.570;9.718;2023-09-18T07:09:27;22.50;99.90
11132;DHT22;5620;53.570;9.718;2023-09-18T07:11:52;22.60;99.90
11132;DHT22;5620;53.570;9.718;2023-09-18T07:14:18;22.80;99.90
11132;DHT22;5620;53.570;9.718;2023-09-18T07:16:44;22.90;99.90
11132;DHT22;5620;53.570;9.718;2023-09-18T07:19:09;23.00;99.90
11132;DHT22;5620;53.570;9.718;2023-09-18T07:21:35;23.20;99.90
11132;DHT22;5620;53.570;9.718;2023-09-18T07:24:00;23.30;99.90
11132;DHT22;5620;53.570;9.718;2023-09-18T07:26:26;23.40;99.90
11132;DHT22;5620;53.570;9.718;2023-09-18T07:28:51;23.50;99.90
11132;DHT22;5620;53.570;9.718;2023-09-18T07:31:17;23.60;99.90
11132;DHT22;5620;53.570;9.718;2023-09-18T07:33:42;23.70;99.90
11132;DHT22;5620;53.570;9.718;2023-09-18T07:36:08;23.70;99.90
11132;DHT22;5620;53.570;9.718;2023-09-18T07:38:33;23.70;99.90
11132;DHT22;5620;53.570;9.718;2023-09-18T07:40:59;23.60;99.90
11132;DHT22;5620;53.570;9.718;2023-09-18T07:43:25;23.50;99.90
11132;DHT22;5620;53.570;9.718;2023-09-18T07:45:50;23.30;99.90
11132;DHT22;5620;53.570;9.718;2023-09-18T07:48:16;23.20;99.90
11132;DHT22;5620;53.570;9.718;2023-09-18T07:50:43;23.10;99.90
11132;DHT22;5620;53.570;9.718;2023-09-18T07:53:09;23.20;99.90
11132;DHT22;5620;53.570;9.718;2023-09-18T07:55:34;23.40;99.90
11132;DHT22;5620;53.570;9.718;2023-09-18T07:58:00;23.60;99.90
11132;DHT22;5620;53.570;9.718;2023-09-18T08:00:25;23.80;99.90
11132;DHT22;5620;53.570;9.718;2023-09-18T08:02:51;23.90;99.90
11132;DHT22;5620;53.570;9.718;2023-09-18T08:05:17;23.90;97.40
11132;DHT22;5620;53.570;9.718;2023-09-18T08:07:42;23.90;93.90
11132;DHT22;5620;53.570;9.718;2023-09-18T08:10:08;23.80;90.70
11132;DHT22;5620;53.570;9.718;2023-09-18T08:12:35;23.70;89.80
11132;DHT22;5620;53.570;9.718;2023-09-18T08:15:01;23.60;88.60
11132;DHT22;5620;53.570;9.718;2023-09-18T08:17:27;23.30;89.70
11132;DHT22;5620;53.570;9.718;2023-09-18T08:19:53;23.20;91.40
11132;DHT22;5620;53.570;9.718;2023-09-18T08:22:19;23.10;92.80
11132;DHT22;5620;53.570;9.718;2023-09-18T08:24:49;23.00;94.50
11132;DHT22;5620;53.570;9.718;2023-09-18T08:27:15;23.00;96.20
11132;DHT22;5620;53.570;9.718;2023-09-18T08:29:40;22.90;98.70
11132;DHT22;5620;53.570;9.718;2023-09-18T08:32:06;22.90;99.90
11132;DHT22;5620;53.570;9.718;2023-09-18T08:34:32;23.00;99.90
11132;DHT22;5620;53.570;9.718;2023-09-18T08:36:57;23.10;99.90
11132;DHT22;5620;53.570;9.718;2023-09-18T08:39:23;23.10;99.90
11132;DHT22;5620;53.570;9.718;2023-09-18T08:41:51;23.00;99.90
11132;DHT22;5620;53.570;9.718;2023-09-18T08:44:18;22.90;99.90
11132;DHT22;5620;53.570;9.718;2023-09-18T08:46:44;22.80;99.90
11132;DHT22;5620;53.570;9.718;2023-09-18T08:49:11;22.70;99.90
11132;DHT22;5620;53.570;9.718;2023-09-18T08:51:37;22.60;99.90
11132;DHT22;5620;53.570;9.718;2023-09-18T08:54:04;22.60;99.90
11132;DHT22;5620;53.570;9.718;2023-09-18T08:56:32;22.60;99.90
11132;DHT22;5620;53.570;9.718;2023-09-18T08:58:58;22.60;99.90
11132;DHT22;5620;53.570;9.718;2023-09-18T09:01:23;22.60;99.90
11132;DHT22;5620;53.570;9.718;2023-09-18T09:03:49;22.70;99.90
11132;DHT22;5620;53.570;9.718;2023-09-18T09:06:15;22.90;99.90
11132;DHT22;5620;53.570;9.718;2023-09-18T09:08:40;23.10;99.90
11132;DHT22;5620;53.570;9.718;2023-09-18T09:11:06;23.60;99.90
11132;DHT22;5620;53.570;9.718;2023-09-18T09:13:31;24.10;99.90
11132;DHT22;5620;53.570;9.718;2023-09-18T09:15:59;24.60;99.90
11132;DHT22;5620;53.570;9.718;2023-09-18T09:18:27;24.90;99.90
11132;DHT22;5620;53.570;9.718;2023-09-18T09:23:19;25.50;99.90
11132;DHT22;5620;53.570;9.718;2023-09-18T09:25:44;26.00;99.90
11132;DHT22;5620;53.570;9.718;2023-09-18T09:28:10;26.40;98.30
11132;DHT22;5620;53.570;9.718;2023-09-18T09:30:36;26.80;83.10
11132;DHT22;5620;53.570;9.718;2023-09-18T09:33:04;27.30;19.70
11132;DHT22;5620;53.570;9.718;2023-09-18T09:35:32;27.50;1.00
11132;DHT22;5620;53.570;9.718;2023-09-18T09:38:01;27.60;1.00
11132;DHT22;5620;53.570;9.718;2023-09-18T09:40:28;27.60;1.00
11132;DHT22;5620;53.570;9.718;2023-09-18T09:42:55;27.50;1.00
11132;DHT22;5620;53.570;9.718;2023-09-18T09:45:21;27.20;1.00
11132;DHT22;5620;53.570;9.718;2023-09-18T09:47:47;26.90;1.00
11132;DHT22;5620;53.570;9.718;2023-09-18T09:50:14;26.60;1.00
11132;DHT22;5620;53.570;9.718;2023-09-18T09:52:45;26.40;1.00
11132;DHT22;5620;53.570;9.718;2023-09-18T09:55:31;26.20;1.00
11132;DHT22;5620;53.570;9.718;2023-09-18T09:58:01;26.00;1.00
11132;DHT22;5620;53.570;9.718;2023-09-18T10:00:33;26.00;1.00
11132;DHT22;5620;53.570;9.718;2023-09-18T10:03:04;25.90;1.00
11132;DHT22;5620;53.570;9.718;2023-09-18T10:05:32;25.80;1.00
11132;DHT22;5620;53.570;9.718;2023-09-18T10:07:59;25.80;1.00
11132;DHT22;5620;53.570;9.718;2023-09-18T10:10:30;25.80;1.00
11132;DHT22;5620;53.570;9.718;2023-09-18T10:12:58;25.90;1.00
11132;DHT22;5620;53.570;9.718;2023-09-18T10:15:25;25.90;1.00
11132;DHT22;5620;53.570;9.718;2023-09-18T10:17:54;25.80;1.00
11132;DHT22;5620;53.570;9.718;2023-09-18T10:20:22;25.80;1.00
11132;DHT22;5620;53.570;9.718;2023-09-18T10:22:49;25.90;1.00
11132;DHT22;5620;53.570;9.718;2023-09-18T10:25:20;25.90;1.00
11132;DHT22;5620;53.570;9.718;2023-09-18T10:27:47;26.00;1.00
11132;DHT22;5620;53.570;9.718;2023-09-18T10:30:13;26.20;1.00
11132;DHT22;5620;53.570;9.718;2023-09-18T10:32:40;26.70;1.00
11132;DHT22;5620;53.570;9.718;2023-09-18T10:35:07;27.40;1.00
11132;DHT22;5620;53.570;9.718;2023-09-18T10:37:33;28.00;1.00
11132;DHT22;5620;53.570;9.718;2023-09-18T10:39:59;28.20;1.00
11132;DHT22;5620;53.570;9.718;2023-09-18T10:42:26;28.30;1.00
11132;DHT22;5620;53.570;9.718;2023-09-18T10:44:52;28.30;1.00
11132;DHT22;5620;53.570;9.718;2023-09-18T10:47:18;28.00;1.00
11132;DHT22;5620;53.570;9.718;2023-09-18T10:49:44;28.00;1.00
11132;DHT22;5620;53.570;9.718;2023-09-18T10:52:13;28.20;1.00
11132;DHT22;5620;53.570;9.718;2023-09-18T10:54:40;28.70;1.00
11132;DHT22;5620;53.570;9.718;2023-09-18T10:57:06;29.00;1.00
11132;DHT22;5620;53.570;9.718;2023-09-18T10:59:32;28.90;1.00
11132;DHT22;5620;53.570;9.718;2023-09-18T11:02:03;28.80;1.00
11132;DHT22;5620;53.570;9.718;2023-09-18T11:04:30;29.20;1.00
11132;DHT22;5620;53.570;9.718;2023-09-18T11:09:27;30.80;1.00
11132;DHT22;5620;53.570;9.718;2023-09-18T11:17:37;29.50;1.00
11132;DHT22;5620;53.570;9.718;2023-09-18T11:20:04;28.80;1.00
11132;DHT22;5620;53.570;9.718;2023-09-18T11:22:31;28.20;1.00
11132;DHT22;5620;53.570;9.718;2023-09-18T11:25:35;27.90;1.00
11132;DHT22;5620;53.570;9.718;2023-09-18T11:28:02;27.60;1.00
11132;DHT22;5620;53.570;9.718;2023-09-18T11:30:29;27.20;1.00
11132;DHT22;5620;53.570;9.718;2023-09-18T11:32:55;27.00;1.00
11132;DHT22;5620;53.570;9.718;2023-09-18T11:35:21;26.90;1.00
11132;DHT22;5620;53.570;9.718;2023-09-18T11:37:47;26.80;1.00
11132;DHT22;5620;53.570;9.718;2023-09-18T11:40:32;26.70;1.00
11132;DHT22;5620;53.570;9.718;2023-09-18T11:43:23;26.60;1.00
11132;DHT22;5620;53.570;9.718;2023-09-18T11:45:50;26.60;1.00
11132;DHT22;5620;53.570;9.718;2023-09-18T11:48:16;26.80;1.00
11132;DHT22;5620;53.570;9.718;2023-09-18T11:50:43;26.90;1.00
11132;DHT22;5620;53.570;9.718;2023-09-18T11:53:11;26.90;1.00
11132;DHT22;5620;53.570;9.718;2023-09-18T11:55:38;26.70;1.00
11132;DHT22;5620;53.570;9.718;2023-09-18T11:58:05;26.70;1.00
11132;DHT22;5620;53.570;9.718;2023-09-18T12:00:31;26.70;1.00
11132;DHT22;5620;53.570;9.718;2023-09-18T12:02:56;26.60;1.00
11132;DHT22;5620;53.570;9.718;2023-09-18T12:05:23;26.60;1.00
11132;DHT22;5620;53.570;9.718;2023-09-18T12:07:48;26.60;1.00
11132;DHT22;5620;53.570;9.718;2023-09-18T12:10:15;26.50;1.00
11132;DHT22;5620;53.570;9.718;2023-09-18T12:12:42;26.60;1.00
11132;DHT22;5620;53.570;9.718;2023-09-18T12:15:11;27.00;1.00
11132;DHT22;5620;53.570;9.718;2023-09-18T12:17:37;27.50;1.00
11132;DHT22;5620;53.570;9.718;2023-09-18T12:20:03;27.80;1.00
11132;DHT22;5620;53.570;9.718;2023-09-18T12:22:29;28.90;1.00
11132;DHT22;5620;53.570;9.718;2023-09-18T12:25:11;30.50;1.00
11132;DHT22;5620;53.570;9.718;2023-09-18T12:27:37;31.40;1.00
11132;DHT22;5620;53.570;9.718;2023-09-18T12:30:04;31.40;1.00
11132;DHT22;5620;53.570;9.718;2023-09-18T12:32:30;31.50;99.90
11132;DHT22;5620;53.570;9.718;2023-09-18T12:34:56;31.20;99.90
11132;DHT22;5620;53.570;9.718;2023-09-18T12:37:21;30.90;99.90
11132;DHT22;5620;53.570;9.718;2023-09-18T12:39:48;30.50;99.90
11132;DHT22;5620;53.570;9.718;2023-09-18T12:42:13;30.10;99.90
11132;DHT22;5620;53.570;9.718;2023-09-18T12:44:39;29.90;1.00
11132;DHT22;5620;53.570;9.718;2023-09-18T12:47:05;29.90;1.00
11132;DHT22;5620;53.570;9.718;2023-09-18T12:49:31;29.90;1.00
11132;DHT22;5620;53.570;9.718;2023-09-18T12:52:03;30.20;1.00
11132;DHT22;5620;53.570;9.718;2023-09-18T12:54:42;31.10;1.00
11132;DHT22;5620;53.570;9.718;2023-09-18T12:57:09;32.90;99.90
11132;DHT22;5620;53.570;9.718;2023-09-18T12:59:36;34.70;99.90
11132;DHT22;5620;53.570;9.718;2023-09-18T13:02:03;35.30;99.90
11132;DHT22;5620;53.570;9.718;2023-09-18T13:04:29;35.90;99.90
11132;DHT22;5620;53.570;9.718;2023-09-18T13:07:07;34.90;99.90
11132;DHT22;5620;53.570;9.718;2023-09-18T13:09:32;33.40;99.90
11132;DHT22;5620;53.570;9.718;2023-09-18T13:11:58;32.60;99.90
11132;DHT22;5620;53.570;9.718;2023-09-18T13:14:27;32.40;99.90
11132;DHT22;5620;53.570;9.718;2023-09-18T13:16:52;31.50;99.90
11132;DHT22;5620;53.570;9.718;2023-09-18T13:19:19;30.90;99.90
11132;DHT22;5620;53.570;9.718;2023-09-18T13:21:51;30.40;99.90
11132;DHT22;5620;53.570;9.718;2023-09-18T13:24:29;30.50;99.90
11132;DHT22;5620;53.570;9.718;2023-09-18T13:26:55;30.80;99.90
11132;DHT22;5620;53.570;9.718;2023-09-18T13:29:22;30.60;99.90
11132;DHT22;5620;53.570;9.718;2023-09-18T13:31:48;30.30;99.90
11132;DHT22;5620;53.570;9.718;2023-09-18T13:34:14;30.10;99.90
11132;DHT22;5620;53.570;9.718;2023-09-18T13:36:39;29.70;99.90
11132;DHT22;5620;53.570;9.718;2023-09-18T13:39:05;29.20;99.90
11132;DHT22;5620;53.570;9.718;2023-09-18T13:41:30;28.70;99.90
11132;DHT22;5620;53.570;9.718;2023-09-18T13:43:56;28.30;99.90
11132;DHT22;5620;53.570;9.718;2023-09-18T13:46:21;27.90;1.00
11132;DHT22;5620;53.570;9.718;2023-09-18T13:48:47;27.70;1.00
11132;DHT22;5620;53.570;9.718;2023-09-18T13:51:13;27.50;1.00
11132;DHT22;5620;53.570;9.718;2023-09-18T13:53:38;27.30;1.00
11132;DHT22;5620;53.570;9.718;2023-09-18T13:56:04;27.10;1.00
11132;DHT22;5620;53.570;9.718;2023-09-18T13:58:29;27.00;1.00
11132;DHT22;5620;53.570;9.718;2023-09-18T14:00:55;27.00;1.00
11132;DHT22;5620;53.570;9.718;2023-09-18T14:03:21;26.90;1.00
11132;DHT22;5620;53.570;9.718;2023-09-18T14:05:46;26.80;1.00
11132;DHT22;5620;53.570;9.718;2023-09-18T14:08:12;26.80;1.00
11132;DHT22;5620;53.570;9.718;2023-09-18T14:10:37;26.80;1.00
11132;DHT22;5620;53.570;9.718;2023-09-18T14:13:03;26.90;1.00
11132;DHT22;5620;53.570;9.718;2023-09-18T14:15:28;27.00;1.00
11132;DHT22;5620;53.570;9.718;2023-09-18T14:17:54;27.80;1.00
11132;DHT22;5620;53.570;9.718;2023-09-18T14:20:19;30.30;1.00
11132;DHT22;5620;53.570;9.718;2023-09-18T14:22:46;32.30;99.90
11132;DHT22;5620;53.570;9.718;2023-09-18T14:25:11;33.70;99.90
11132;DHT22;5620;53.570;9.718;2023-09-18T14:27:37;35.20;99.90
11132;DHT22;5620;53.570;9.718;2023-09-18T14:30:03;36.50;99.90
11132;DHT22;5620;53.570;9.718;2023-09-18T14:32:29;37.40;99.90
11132;DHT22;5620;53.570;9.718;2023-09-18T14:34:54;37.40;99.90
11132;DHT22;5620;53.570;9.718;2023-09-18T14:37:20;37.50;99.90
11132;DHT22;5620;53.570;9.718;2023-09-18T14:39:45;38.30;99.90
11132;DHT22;5620;53.570;9.718;2023-09-18T14:42:11;37.70;99.90
11132;DHT22;5620;53.570;9.718;2023-09-18T14:44:36;36.80;99.90
11132;DHT22;5620;53.570;9.718;2023-09-18T14:47:02;36.10;99.90
11132;DHT22;5620;53.570;9.718;2023-09-18T14:49:27;35.50;99.90
11132;DHT22;5620;53.570;9.718;2023-09-18T14:51:53;35.10;99.90
11132;DHT22;5620;53.570;9.718;2023-09-18T14:54:19;34.90;99.90
11132;DHT22;5620;53.570;9.718;2023-09-18T14:56:44;34.40;99.90
11132;DHT22;5620;53.570;9.718;2023-09-18T14:59:10;33.60;99.90
11132;DHT22;5620;53.570;9.718;2023-09-18T15:01:35;33.30;99.90
11132;DHT22;5620;53.570;9.718;2023-09-18T15:04:01;33.50;99.90
11132;DHT22;5620;53.570;9.718;2023-09-18T15:06:26;34.90;99.90
11132;DHT22;5620;53.570;9.718;2023-09-18T15:08:52;36.80;99.90
11132;DHT22;5620;53.570;9.718;2023-09-18T15:11:18;38.70;99.90
11132;DHT22;5620;53.570;9.718;2023-09-18T15:13:44;40.00;99.90
11132;DHT22;5620;53.570;9.718;2023-09-18T15:16:09;40.70;99.90
11132;DHT22;5620;53.570;9.718;2023-09-18T15:18:35;41.30;99.90
11132;DHT22;5620;53.570;9.718;2023-09-18T15:21:00;42.20;99.90
11132;DHT22;5620;53.570;9.718;2023-09-18T15:23:26;42.10;99.90
11132;DHT22;5620;53.570;9.718;2023-09-18T15:25:52;42.40;99.90
11132;DHT22;5620;53.570;9.718;2023-09-18T15:28:17;42.80;99.90
11132;DHT22;5620;53.570;9.718;2023-09-18T15:30:43;42.40;99.90
11132;DHT22;5620;53.570;9.718;2023-09-18T15:33:09;42.00;99.90
11132;DHT22;5620;53.570;9.718;2023-09-18T15:35:34;41.40;99.90
11132;DHT22;5620;53.570;9.718;2023-09-18T15:38:00;41.30;99.90
11132;DHT22;5620;53.570;9.718;2023-09-18T15:40:26;41.10;99.90
11132;DHT22;5620;53.570;9.718;2023-09-18T15:42:52;41.10;99.90
11132;DHT22;5620;53.570;9.718;2023-09-18T15:45:18;39.80;99.90
11132;DHT22;5620;53.570;9.718;2023-09-18T15:47:43;38.30;99.90
11132;DHT22;5620;53.570;9.718;2023-09-18T15:50:28;36.60;99.90
11132;DHT22;5620;53.570;9.718;2023-09-18T15:52:54;35.60;99.90
11132;DHT22;5620;53.570;9.718;2023-09-18T15:55:19;34.10;99.90
11132;DHT22;5620;53.570;9.718;2023-09-18T15:57:45;32.80;99.90
11132;DHT22;5620;53.570;9.718;2023-09-18T16:00:11;31.60;99.90